Flight Track Log - Related Links

Times and Time Zones

All times are in EDT time to prevent confusion due to time zone crossing. See the ASQ5740 flight status page for this flight to view local times or setup timezone preferences in your user account.

Time Position Orientation Groundspeed Altitude Reporting Facility
EDT Latitude Longitude Course Direction KTS MPH feet Rate Location/Type
Sun 01:57:52 PM 41.9167 -87.9167 171° South 191 220 2,700  Level Chicago TRACON
Sun 01:58:52 PM 41.8500 -87.9167 180° South 252 290 4,600 2,176 Climbing Chicago TRACON
Sun 01:59:34 PM 41.7983 -87.9150 179° South 250 288 6,400 2,365 Climbing Chicago Center
Sun 02:00:00 PM 41.7112 -87.4907 153° Southeast  Level Estimated
Sun 02:00:36 PM 41.7344 -87.8539 144° Southeast 278 320 8,700  Level Chicago Center
Sun 02:01:00 PM 41.6118 -87.5260 195° South  Level FlightAware Approximate
Sun 02:01:38 PM 41.6658 -87.7914 146° Southeast 295 339 10,800  Level Chicago Center
Sun 02:02:00 PM 41.5449 -87.4217 166° South  Level Estimated
Sun 02:02:40 PM 41.5936 -87.7272 146° Southeast 308 354 12,900  Level Chicago Center
Sun 02:03:00 PM 41.4779 -87.3176 171° South  Level Estimated
Sun 02:03:43 PM 41.5206 -87.6578 145° Southeast 318 366 14,700  Level Chicago Center
Sun 02:04:45 PM 41.4406 -87.5861 146° Southeast 338 389 15,600 968 Climbing Chicago Center
Sun 02:05:47 PM 41.3403 -87.5567 168° South 367 422 16,700 1,065 Climbing Chicago Center
Sun 02:06:49 PM 41.2156 -87.5353 173° South 373 429 17,800 919 Climbing Chicago Center
Sun 02:07:51 PM 41.1086 -87.5081 169° South 387 445 18,600 774 Climbing Chicago Center
Sun 02:08:53 PM 40.9992 -87.4769 168° South 398 458 19,400 774 Climbing Chicago Center
Sun 02:09:55 PM 40.8894 -87.4475 169° South 401 461 20,200 774 Climbing Chicago Center
Sun 02:10:57 PM 40.7808 -87.4192 169° South 400 460 21,000 871 Climbing Chicago Center
Sun 02:11:59 PM 40.6514 -87.3861 169° South 397 457 22,000 823 Climbing Chicago Center
Sun 02:13:01 PM 40.5433 -87.3567 168° South 398 458 22,700 677 Climbing Chicago Center
Sun 02:14:03 PM 40.4411 -87.3233 166° South 404 465 23,400 726 Climbing Chicago Center
Sun 02:15:05 PM 40.3489 -87.2367 144° Southeast 408 470 24,200 677 Climbing Chicago Center
Sun 02:16:07 PM 40.2550 -87.1503 145° Southeast 413 475 24,800 629 Climbing Chicago Center
Sun 02:17:09 PM 40.1419 -87.0444 144° Southeast 417 480 25,500 643 Climbing Chicago Center
Sun 02:17:59 PM 40.0633 -86.9739 146° Southeast 420 483 26,000 589 Climbing Indianapolis Center
Sun 02:19:01 PM 39.9686 -86.8861 145° Southeast 421 484 26,600 537 Climbing Indianapolis Center
Sun 02:20:02 PM 39.8706 -86.8061 148° Southeast 418 481 27,100 488 Climbing Indianapolis Center
Sun 02:21:04 PM 39.7722 -86.7256 148° Southeast 421 484 27,600 484 Climbing Indianapolis Center
Sun 02:22:06 PM 39.6889 -86.6203 136° Southeast 439 505 28,100 537 Climbing Indianapolis Center
Sun 02:23:07 PM 39.6164 -86.4597 120° Southeast 439 505 28,700 439 Climbing Indianapolis Center
Sun 02:24:09 PM 39.5422 -86.3378 128° Southeast 440 506 29,000 145 Climbing Indianapolis Center
Sun 02:25:11 PM 39.4683 -86.2119 127° Southeast 444 511 29,000  Level Indianapolis Center
Sun 02:26:12 PM 39.3911 -86.0836 128° Southeast 455 524 29,000  Level Indianapolis Center
Sun 02:27:14 PM 39.2967 -85.9269 128° Southeast 463 533 29,000  Level Indianapolis Center
Sun 02:28:16 PM 39.2175 -85.7950 128° Southeast 466 536 29,000  Level Indianapolis Center
Sun 02:29:18 PM 39.1369 -85.6633 128° Southeast 468 539 29,000  Level Indianapolis Center
Sun 02:30:19 PM 39.0558 -85.5319 128° Southeast 471 542 29,000  Level Indianapolis Center
Sun 02:31:21 PM 38.9756 -85.4003 128° Southeast 470 541 29,000  Level Indianapolis Center
Sun 02:32:23 PM 38.8944 -85.2692 128° Southeast 470 541 29,000  Level Indianapolis Center
Sun 02:33:25 PM 38.7969 -85.1119 128° Southeast 473 544 29,000  Level Indianapolis Center
Sun 02:34:27 PM 38.7164 -84.9808 128° Southeast 471 542 29,000  Level Indianapolis Center
Sun 02:35:29 PM 38.6331 -84.8481 129° Southeast 466 536 29,000  Level Indianapolis Center
Sun 02:36:31 PM 38.5514 -84.7183 129° Southeast 469 540 29,000  Level Indianapolis Center
Sun 02:37:32 PM 38.4700 -84.5894 129° Southeast 467 537 29,000  Level Indianapolis Center
Sun 02:38:34 PM 38.3878 -84.4594 129° Southeast 469 540 29,000  Level Indianapolis Center
Sun 02:39:36 PM 38.2922 -84.3089 129° Southeast 468 539 29,000  Level Indianapolis Center
Sun 02:40:38 PM 38.2111 -84.1797 129° Southeast 467 537 29,000  Level Indianapolis Center
Sun 02:41:40 PM 38.1303 -84.0536 129° Southeast 461 531 29,000  Level Indianapolis Center
Sun 02:42:42 PM 38.0489 -83.9292 130° Southeast 458 527 29,000  Level Indianapolis Center
Sun 02:43:44 PM 37.9614 -83.8111 133° Southeast 460 529 29,000  Level Indianapolis Center
Sun 02:44:45 PM 37.8606 -83.7175 144° Southeast 450 518 29,000  Level Indianapolis Center
Sun 02:45:47 PM 37.7581 -83.6272 145° Southeast 449 517 29,000  Level Indianapolis Center
Sun 02:46:49 PM 37.6375 -83.5225 145° Southeast 449 517 29,000  Level Indianapolis Center
Sun 02:47:51 PM 37.5603 -83.3981 128° Southeast 457 526 29,000  Level Indianapolis Center
Sun 02:48:53 PM 37.4881 -83.2661 125° Southeast 455 524 29,000 -244 Level Indianapolis Center
Sun 02:49:54 PM 37.4139 -83.1322 125° Southeast 461 531 28,500 -585 Descending Indianapolis Center
Sun 02:50:56 PM 37.3383 -82.9947 125° Southeast 471 542 27,800 -677 Descending Indianapolis Center
Sun 02:51:58 PM 37.2614 -82.8550 125° Southeast 480 552 27,100 -387 Descending Indianapolis Center
Sun 02:53:00 PM 37.1839 -82.7153 125° Southeast 481 554 27,000 -49 Descending Indianapolis Center
Sun 02:54:01 PM 37.1075 -82.5781 125° Southeast 476 548 27,000  Level Indianapolis Center
Sun 02:55:03 PM 37.0186 -82.4211 125° Southeast 470 541 27,000  Level Indianapolis Center
Sun 02:56:05 PM 36.9436 -82.2878 125° Southeast 467 537 27,000 -48 Level Indianapolis Center
Sun 02:57:07 PM 36.8683 -82.1558 125° Southeast 464 534 26,900 -585 Descending Indianapolis Center
Sun 02:58:08 PM 36.7928 -82.0258 126° Southeast 461 531 25,800 -927 Descending Indianapolis Center
Sun 02:59:10 PM 36.7158 -81.9000 127° Southeast 456 525 25,000 -581 Descending Indianapolis Center
Sun 03:00:12 PM 36.6406 -81.7772 127° Southeast 447 514 24,600 -484 Descending Indianapolis Center
Sun 03:01:14 PM 36.5647 -81.6525 127° Southeast 449 517 24,000 -341 Descending Indianapolis Center
Sun 03:02:15 PM 36.4756 -81.5089 128° Southeast 448 516 23,900 -976 Descending Indianapolis Center
Sun 03:03:17 PM 36.4033 -81.3783 124° Southeast 463 533 22,000 -1,488 Descending Indianapolis Center
Sun 03:04:20 PM 36.3842 -81.2169 98° East 467 537 20,800 -1,200 Descending Indianapolis Center
Sun 03:05:22 PM 36.3761 -81.0608 94° East 450 518 19,500 -1,511 Descending Indianapolis Center
Sun 03:06:31 PM 36.3658 -80.8753 94° East 440 506 17,500 -1,721 Descending Atlanta Center
Sun 03:07:31 PM 36.3597 -80.7233 93° East 440 506 15,800 -1,600 Descending Atlanta Center
Sun 03:08:31 PM 36.3519 -80.5922 94° East 435 501 14,300 -1,600 Descending Atlanta Center
Sun 03:09:31 PM 36.3108 -80.4650 112° Southeast 402 463 12,600 -1,650 Descending Atlanta Center
Sun 03:10:31 PM 36.2494 -80.3622 127° Southeast 362 417 11,000 -1,300 Descending Atlanta Center
Sun 03:11:31 PM 36.1850 -80.3008 142° Southeast 321 369 10,000 -1,200 Descending Atlanta Center
Sun 03:12:31 PM 36.1106 -80.2531 153° Southeast 296 341 8,600 -1,000 Descending Atlanta Center
Sun 03:13:31 PM 36.0422 -80.2047 150° Southeast 296 341 8,000 -300 Descending Atlanta Center
Sun 03:14:31 PM 36.0206 -80.1186 107° East 273 314 8,000  Level Atlanta Center
Sun 03:15:31 PM 35.9906 -80.0275 112° Southeast 273 314 8,000  Level Atlanta Center
Sun 03:17:00 PM 36.1000 -79.9333 109° East  Level FlightAware Approximate
Sun 03:24:00 PM 36.1013 -79.9411 109° East  Level Estimated
Sun 03:25:00 PM 36.1000 -79.9333 109° East  Level FlightAware Approximate
Sun 03:26:00 PM 36.1013 -79.9411 109° East  Level Estimated
Sun 03:27:00 PM 36.1000 -79.9333 109° East  Level FlightAware Approximate
Sun 03:28:00 PM 36.1013 -79.9411 109° East  Level Estimated
Sun 03:29:00 PM 36.1000 -79.9333 109° East  Level FlightAware Approximate
Sun 03:30:00 PM 36.1013 -79.9411 109° East  Level Estimated
Sun 03:31:00 PM 36.1000 -79.9333 109° East  Level FlightAware Approximate
Sun 03:32:00 PM 36.1013 -79.9411 109° East  Level Estimated

Login

Don't have an account? Register now (free) for customized features, flight alerts, and more!